Time;durP1;ratioP1;P1;durP2;ratioP2;P2;SDS_P1;SDS_P2;PMS_P1;PMS_P2;Temp;Humidity;BMP_temperature;BMP_pressure;BME280_temperature;BME280_humidity;BME280_pressure;Samples;Min_cycle;Max_cycle;Signal;HPM_P1;HPM_P2
2021/04/03 00:00:59;;;;;;;6.15;4.17;;;;;;;9.85;74.42;96452.41;1783572;80;21297;-82
2021/04/03 00:03:29;;;;;;;6.95;4.10;;;;;;;9.87;74.55;96446.53;1787048;80;21265;-82
2021/04/03 00:05:58;;;;;;;6.30;3.90;;;;;;;9.89;74.74;96444.57;1758633;81;21142;-83
2021/04/03 00:08:27;;;;;;;9.63;3.77;;;;;;;9.93;74.72;96443.84;1791095;79;21432;-82
2021/04/03 00:11:00;;;;;;;7.58;3.87;;;;;;;9.96;74.74;96440.45;1802809;79;21306;-83
2021/04/03 00:13:33;;;;;;;6.15;3.95;;;;;;;9.97;74.55;96436.86;1777069;79;21250;-82
2021/04/03 00:16:04;;;;;;;9.60;4.40;;;;;;;10.06;74.60;96434.37;1765894;79;21298;-81
2021/04/03 00:18:32;;;;;;;5.92;3.95;;;;;;;10.05;74.38;96436.66;1776016;79;21311;-83
2021/04/03 00:21:00;;;;;;;5.90;3.90;;;;;;;9.90;74.26;96436.20;1767179;79;21561;-83
2021/04/03 00:23:33;;;;;;;6.30;4.60;;;;;;;9.66;74.15;96434.27;1775696;79;21308;-82
2021/04/03 00:26:04;;;;;;;6.42;4.35;;;;;;;9.53;73.95;96422.67;1786455;80;21243;-82
2021/04/03 00:28:32;;;;;;;8.35;4.62;;;;;;;9.46;74.30;96423.33;1769803;80;21333;-83
2021/04/03 00:31:06;;;;;;;7.40;4.72;;;;;;;9.33;74.86;96424.38;1792209;80;21298;-83
2021/04/03 00:33:37;;;;;;;;;;;;;;;9.29;74.66;96415.09;1786233;80;21287;-83
2021/04/03 00:36:09;;;;;;;6.60;4.87;;;;;;;9.29;74.34;96415.56;1769721;80;20164;-83
2021/04/03 00:38:37;;;;;;;5.87;4.92;;;;;;;9.28;74.59;96409.48;1763910;80;21239;-85
2021/04/03 00:41:04;;;;;;;6.33;4.87;;;;;;;9.30;74.60;96409.34;1836928;77;21163;-83
2021/04/03 00:43:38;;;;;;;7.08;5.37;;;;;;;9.28;74.61;96409.48;1820964;77;21214;-82
2021/04/03 00:46:11;;;;;;;5.62;4.55;;;;;;;9.25;74.62;96411.05;1789153;77;21279;-83
2021/04/03 00:49:01;;;;;;;6.03;4.58;;;;;;;9.20;74.69;96411.45;1820660;78;21234;-83
2021/04/03 00:51:31;;;;;;;6.17;5.30;;;;;;;9.14;74.72;96412.48;1776881;77;21123;-84
2021/04/03 00:54:08;;;;;;;7.55;5.80;;;;;;;9.09;74.83;96410.70;1806035;77;21281;-83
2021/04/03 00:56:38;;;;;;;6.45;5.20;;;;;;;9.03;74.90;96405.48;1810044;77;21131;-84
2021/04/03 00:59:07;;;;;;;6.33;5.03;;;;;;;8.96;74.93;96406.48;1821283;77;21278;-84
2021/04/03 01:01:35;;;;;;;7.05;5.50;;;;;;;8.90;75.07;96408.33;1820589;78;21126;-84
2021/04/03 01:04:03;;;;;;;7.47;5.03;;;;;;;8.85;74.98;96402.64;1841270;77;21176;-84
2021/04/03 01:06:30;;;;;;;7.25;5.47;;;;;;;8.82;75.20;96404.20;1834447;77;22732;-84
2021/04/03 01:08:58;;;;;;;9.33;4.87;;;;;;;8.80;75.27;96402.18;1834904;77;21155;-84
2021/04/03 01:11:28;;;;;;;7.67;5.37;;;;;;;8.79;75.45;96393.94;1846050;77;21132;-82
2021/04/03 01:14:08;;;;;;;6.87;4.50;;;;;;;8.80;75.62;96392.98;1837627;77;21131;-84
2021/04/03 01:17:04;;;;;;;8.10;5.12;;;;;;;8.83;75.85;96386.16;1815786;78;21250;-84
2021/04/03 01:19:45;;;;;;;10.40;4.90;;;;;;;8.88;75.74;96386.59;1817858;78;21171;-82
2021/04/03 01:23:00;;;;;;;6.50;5.10;;;;;;;8.90;75.75;96383.36;1807235;78;21285;-84
2021/04/03 01:26:11;;;;;;;7.35;5.28;;;;;;;8.88;75.83;96380.87;1827829;77;21226;-82
2021/04/03 01:29:01;;;;;;;10.25;6.10;;;;;;;8.81;76.17;96381.05;1810366;79;21325;-84
2021/04/03 01:31:31;;;;;;;12.28;6.17;;;;;;;8.72;75.86;96377.39;1770365;81;21672;-82
2021/04/03 01:34:03;;;;;;;7.62;5.78;;;;;;;8.70;75.88;96380.62;1736121;81;21287;-84
2021/04/03 01:36:44;;;;;;;7.95;5.00;;;;;;;8.70;75.98;96374.05;1754834;81;21263;-85
2021/04/03 01:39:25;;;;;;;;;;;;;;;8.71;75.76;96377.03;1779555;79;21262;-84
2021/04/03 01:42:07;;;;;;;6.37;4.40;;;;;;;8.69;75.33;96382.89;1653846;86;20224;-83
2021/04/03 01:45:08;;;;;;;7.87;4.47;;;;;;;8.70;75.75;96380.62;1645979;86;21156;-84
2021/04/03 01:48:11;;;;;;;8.35;5.05;;;;;;;8.69;75.59;96371.56;1707394;83;21314;-82
2021/04/03 01:50:53;;;;;;;6.92;4.50;;;;;;;8.68;75.68;96372.52;1699908;84;21309;-83
2021/04/03 01:53:25;;;;;;;8.48;4.70;;;;;;;8.66;75.62;96368.72;1687513;84;21739;-84
2021/04/03 01:55:56;;;;;;;9.63;4.92;;;;;;;8.63;75.69;96358.45;1723118;83;21420;-83
2021/04/03 01:58:30;;;;;;;6.22;4.80;;;;;;;8.60;75.71;96360.02;1716516;83;21190;-83
2021/04/03 02:00:59;;;;;;;7.22;5.33;;;;;;;8.56;75.71;96359.94;1807239;78;21138;-83
2021/04/03 02:03:33;;;;;;;10.28;5.47;;;;;;;8.53;75.74;96354.94;1823138;78;21187;-83
2021/04/03 02:06:06;;;;;;;17.80;6.40;;;;;;;8.43;75.51;96357.48;1805578;78;21163;-84
2021/04/03 02:09:13;;;;;;;6.35;4.47;;;;;;;8.54;75.76;96353.98;1761793;79;24593;-83
2021/04/03 02:11:56;;;;;;;9.48;5.00;;;;;;;8.51;75.95;96354.22;1694032;83;21129;-84
2021/04/03 02:15:10;;;;;;;7.80;5.10;;;;;;;8.59;75.65;96342.13;1842041;78;24713;-84
2021/04/03 02:17:47;;;;;;;8.60;4.60;;;;;;;8.52;75.64;96341.45;1804721;80;21287;-86
2021/04/03 02:21:06;;;;;;;7.42;5.17;;;;;;;8.46;75.52;96343.25;1804381;80;21283;-84
2021/04/03 02:23:38;;;;;;;6.62;5.30;;;;;;;8.32;75.38;96336.03;1771294;80;21268;-85
2021/04/03 02:26:09;;;;;;;11.48;5.10;;;;;;;8.20;75.30;96337.89;1804455;80;21263;-86
2021/04/03 02:28:42;;;;;;;5.35;4.55;;;;;;;8.10;75.34;96343.55;1804490;80;21261;-81
2021/04/03 02:31:14;;;;;;;8.65;5.33;;;;;;;7.97;75.49;96347.66;1804394;80;21281;-85
2021/04/03 02:33:48;;;;;;;8.95;5.10;;;;;;;7.85;75.58;96347.34;1778970;80;21277;-86
2021/04/03 02:36:25;;;;;;;8.85;5.83;;;;;;;7.80;75.64;96354.27;1802739;79;21188;-84
2021/04/03 02:39:20;;;;;;;;;;;;;;;7.72;76.15;96360.16;1796528;78;21243;-85
2021/04/03 02:42:09;;;;;;;11.35;5.87;;;;;;;7.62;76.50;96364.47;1802265;80;20151;-86
2021/04/03 02:44:53;;;;;;;7.62;6.22;;;;;;;7.55;76.11;96354.94;1802413;80;21318;-84
2021/04/03 02:47:50;;;;;;;7.83;4.28;;;;;;;7.48;76.23;96349.34;1764646;81;21117;-85
2021/04/03 02:50:40;;;;;;;13.48;5.58;;;;;;;7.34;76.78;96358.80;1760439;81;21282;-85
2021/04/03 02:53:37;;;;;;;7.58;5.92;;;;;;;7.22;76.31;96355.81;1760024;82;21165;-85
2021/04/03 02:56:14;;;;;;;7.55;5.62;;;;;;;7.16;76.85;96363.22;1700952;83;21161;-86
2021/04/03 02:59:05;;;;;;;8.70;5.75;;;;;;;7.16;76.92;96373.70;1670992;86;21261;-84
2021/04/03 03:01:39;;;;;;;10.10;5.65;;;;;;;7.19;77.01;96366.08;1671300;86;21292;-84
2021/04/03 03:04:15;;;;;;;9.83;5.92;;;;;;;7.22;76.99;96358.44;1700574;84;21157;-85
2021/04/03 03:06:51;;;;;;;9.15;6.42;;;;;;;7.24;77.05;96353.92;1712687;83;21127;-85
2021/04/03 03:09:48;;;;;;;7.60;5.78;;;;;;;7.27;77.11;96356.31;1731798;83;21186;-84
2021/04/03 03:13:01;;;;;;;11.55;6.92;;;;;;;7.26;77.15;96329.24;1709041;84;21158;-85
2021/04/03 03:15:36;;;;;;;13.32;7.33;;;;;;;7.34;77.17;96340.45;1685614;84;21262;-85
2021/04/03 03:18:31;;;;;;;9.93;6.87;;;;;;;7.35;76.85;96329.00;1709617;83;21702;-84
2021/04/03 03:21:11;;;;;;;13.85;7.80;;;;;;;7.35;76.85;96329.00;1738668;83;21145;-84
2021/04/03 03:23:45;;;;;;;9.75;7.05;;;;;;;7.40;77.00;96336.02;1738478;81;21259;-84
2021/04/03 03:26:22;;;;;;;14.43;7.60;;;;;;;7.39;76.80;96335.66;1738142;83;21787;-85
2021/04/03 03:28:57;;;;;;;13.60;7.62;;;;;;;7.46;76.95;96342.10;1601710;88;21184;-85
2021/04/03 03:31:36;;;;;;;8.53;6.75;;;;;;;7.56;76.93;96347.43;1623181;87;21204;-85
2021/04/03 03:34:15;;;;;;;8.75;7.05;;;;;;;7.66;76.83;96354.92;1536862;93;21201;-85
2021/04/03 03:36:57;;;;;;;12.63;7.00;;;;;;;7.75;76.62;96357.27;1481509;95;21245;-86
2021/04/03 03:39:45;;;;;;;8.45;7.00;;;;;;;7.93;76.30;96349.70;1855445;77;24660;-84
2021/04/03 03:42:34;;;;;;;10.00;7.42;;;;;;;7.89;76.10;96347.45;1803084;78;21260;-84
2021/04/03 03:46:02;;;;;;;9.03;6.83;;;;;;;7.89;76.08;96346.14;1829829;78;21235;-84
2021/04/03 03:49:27;;;;;;;13.60;9.58;;;;;;;7.75;76.25;96340.70;1842583;77;21158;-85
2021/04/03 03:52:47;;;;;;;11.53;8.18;;;;;;;7.65;75.83;96333.58;1812091;78;21144;-85
2021/04/03 03:55:51;;;;;;;9.10;7.35;;;;;;;7.69;75.82;96330.22;1823556;78;21131;-83
2021/04/03 03:59:21;;;;;;;8.28;7.37;;;;;;;7.65;75.56;96332.76;1776594;78;21091;-86
2021/04/03 04:02:44;;;;;;;10.75;7.05;;;;;;;7.63;75.44;96332.04;1795318;80;21123;-85
2021/04/03 04:05:52;;;;;;;10.98;8.53;;;;;;;7.50;75.34;96312.03;1799480;80;21223;-85
2021/04/03 04:09:00;;;;;;;10.63;7.12;;;;;;;7.50;75.34;96312.03;1777293;78;21061;-84
2021/04/03 04:15:49;;;;;;;20.90;13.25;;;;;;;7.45;75.21;96315.98;1767953;80;21169;-85
2021/04/03 04:18:49;;;;;;;10.68;7.92;;;;;;;7.38;75.28;96319.56;1797074;78;21152;-85
2021/04/03 04:22:13;;;;;;;12.30;7.80;;;;;;;7.32;75.36;96319.60;1811055;78;21140;-84
2021/04/03 04:24:54;;;;;;;9.78;7.87;;;;;;;7.25;75.56;96318.89;1831659;78;21181;-83
2021/04/03 04:28:00;;;;;;;11.35;7.58;;;;;;;7.15;75.75;96327.48;1802633;78;21138;-83
2021/04/03 04:30:54;;;;;;;10.05;7.40;;;;;;;7.15;75.75;96327.48;1831343;78;21216;-84
2021/04/03 04:34:08;;;;;;;9.30;6.92;;;;;;;7.03;75.78;96308.32;1818544;78;21155;-83
2021/04/03 04:36:49;;;;;;;8.10;6.12;;;;;;;7.13;75.95;96322.83;1818932;78;21227;-83
2021/04/03 04:39:54;;;;;;;9.48;6.50;;;;;;;7.17;76.40;96313.78;1780871;80;21282;-84
2021/04/03 04:43:00;;;;;;;12.75;6.83;;;;;;;7.17;76.40;96313.78;1758075;82;21276;-83
2021/04/03 04:46:16;;;;;;;12.13;7.33;;;;;;;7.30;76.50;96317.58;1708013;83;21170;-83
2021/04/03 04:49:06;;;;;;;11.28;6.42;;;;;;;7.54;76.56;96318.36;1838163;77;26635;-83
2021/04/03 04:51:38;;;;;;;10.85;7.08;;;;;;;7.71;76.38;96320.91;1743766;81;21279;-85
2021/04/03 04:54:12;;;;;;;9.48;6.60;;;;;;;7.71;76.38;96320.91;1618353;89;21183;-84
2021/04/03 04:56:43;;;;;;;14.05;7.60;;;;;;;7.82;76.13;96323.50;1618603;89;21820;-83
2021/04/03 04:59:20;;;;;;;14.35;8.80;;;;;;;7.93;76.18;96330.52;1642649;87;21293;-83
2021/04/03 05:02:08;;;;;;;9.95;7.12;;;;;;;8.04;75.96;96340.94;1630957;87;21175;-83
2021/04/03 05:04:38;;;;;;;12.18;6.90;;;;;;;8.16;75.99;96340.89;1649522;87;21279;-84
2021/04/03 05:07:38;;;;;;;11.65;7.83;;;;;;;8.36;76.22;96346.64;1597797;88;21302;-83
2021/04/03 05:10:08;;;;;;;13.88;7.15;;;;;;;8.64;75.90;96346.98;1614474;87;21289;-83
2021/04/03 05:12:36;;;;;;;10.53;7.53;;;;;;;8.95;75.62;96347.02;1695737;82;21172;-83
2021/04/03 05:15:05;;;;;;;12.93;7.53;;;;;;;9.24;74.84;96341.52;1759471;82;21140;-82
2021/04/03 05:17:33;;;;;;;9.50;7.42;;;;;;;9.45;74.42;96358.52;1765896;81;21125;-84
2021/04/03 05:20:03;;;;;;;14.33;7.85;;;;;;;9.59;73.95;96363.42;1766625;81;21258;-84
2021/04/03 05:22:32;;;;;;;9.85;7.92;;;;;;;9.69;73.61;96366.91;1754425;81;21162;-84
2021/04/03 05:25:04;;;;;;;10.10;7.60;;;;;;;9.75;73.53;96368.64;1766469;81;21277;-83
2021/04/03 05:27:46;;;;;;;12.58;7.37;;;;;;;9.73;73.06;96363.52;1676507;85;21145;-83
2021/04/03 05:30:51;;;;;;;10.20;7.20;;;;;;;9.71;72.54;96369.39;1682631;85;21311;-83
2021/04/03 05:33:37;;;;;;;14.13;6.85;;;;;;;9.68;72.29;96372.29;1747921;81;21453;-85
2021/04/03 05:36:08;;;;;;;;;;;;;;;9.64;71.94;96374.86;1768918;81;21142;-84
2021/04/03 05:38:43;;;;;;;11.78;7.53;;;;;;;9.58;69.96;96367.02;1766281;81;20141;-85
2021/04/03 05:41:15;;;;;;;14.80;7.70;;;;;;;9.15;71.67;96307.17;1749340;81;21310;-83
2021/04/03 05:43:51;;;;;;;13.25;7.53;;;;;;;9.51;72.99;96369.34;1750820;81;21198;-83
2021/04/03 05:46:20;;;;;;;12.17;7.37;;;;;;;9.49;72.18;96369.14;1743538;81;21270;-85
2021/04/03 05:48:47;;;;;;;12.07;7.37;;;;;;;9.48;72.58;96367.47;1712524;83;21921;-85
2021/04/03 05:51:19;;;;;;;11.25;8.28;;;;;;;9.32;72.57;96368.82;1716678;84;21269;-83
2021/04/03 05:53:50;;;;;;;16.67;7.78;;;;;;;9.21;73.50;96364.97;1693068;84;21159;-83
2021/04/03 05:56:22;;;;;;;13.88;7.62;;;;;;;9.09;72.52;96369.95;1676854;84;21641;-85
2021/04/03 05:58:49;;;;;;;12.18;7.40;;;;;;;9.08;73.22;96369.61;1717186;82;21176;-81
2021/04/03 06:01:17;;;;;;;11.10;8.43;;;;;;;9.14;74.52;96367.78;1698942;84;21150;-80
2021/04/03 06:03:44;;;;;;;11.73;7.80;;;;;;;9.17;73.69;96360.92;1712212;84;21242;-80
2021/04/03 06:06:13;;;;;;;14.60;8.48;;;;;;;9.27;73.27;96357.85;1715540;84;21163;-81
2021/04/03 06:08:41;;;;;;;10.30;7.87;;;;;;;9.40;73.35;96359.42;1688207;84;21127;-82
2021/04/03 06:11:22;;;;;;;12.85;7.10;;;;;;;9.49;72.85;96363.88;1715132;84;21138;-82
2021/04/03 06:14:02;;;;;;;11.83;7.62;;;;;;;9.60;74.68;96364.24;1697998;84;21282;-81
2021/04/03 06:16:42;;;;;;;9.95;7.20;;;;;;;9.59;74.45;96362.11;1717301;84;21318;-81
2021/04/03 06:19:25;;;;;;;9.70;7.22;;;;;;;9.45;73.59;96330.91;1708652;83;21201;-79
2021/04/03 06:21:58;;;;;;;15.03;9.55;;;;;;;9.72;73.83;96363.17;1702482;83;21176;-82
2021/04/03 06:24:30;;;;;;;16.55;12.03;;;;;;;9.63;72.05;96356.91;1688395;84;21181;-78
2021/04/03 06:27:12;;;;;;;21.85;11.95;;;;;;;9.58;72.07;96366.17;1699343;84;21203;-78
2021/04/03 06:29:48;;;;;;;16.40;11.40;;;;;;;9.61;72.03;96360.16;1714910;84;21329;-80
2021/04/03 06:32:30;;;;;;;15.78;10.93;;;;;;;9.66;71.52;96351.85;1698094;84;21349;-80
2021/04/03 06:34:59;;;;;;;16.52;10.68;;;;;;;9.57;72.62;96351.34;1659389;87;21225;-79
2021/04/03 06:37:34;;;;;;;14.25;10.80;;;;;;;9.26;69.96;96355.37;1688266;85;21335;-79
2021/04/03 06:40:11;;;;;;;19.95;10.45;;;;;;;9.12;71.79;96348.67;1687053;85;21320;-87
2021/04/03 06:42:57;;;;;;;15.03;9.85;;;;;;;9.13;71.74;96347.71;1681582;85;21149;-78
2021/04/03 06:45:34;;;;;;;15.93;10.58;;;;;;;9.14;71.79;96344.94;1681123;85;21140;-77
2021/04/03 06:48:06;;;;;;;13.83;9.78;;;;;;;9.19;71.84;96353.25;1699754;83;21287;-79
2021/04/03 06:50:44;;;;;;;14.15;9.40;;;;;;;9.31;72.57;96354.00;1719658;82;21197;-79
2021/04/03 06:53:17;;;;;;;12.98;8.90;;;;;;;9.45;71.93;96357.20;1696597;83;21308;-81
2021/04/03 06:55:48;;;;;;;10.78;8.53;;;;;;;9.54;72.19;96353.77;1684326;83;21266;-82
2021/04/03 06:58:16;;;;;;;12.33;7.80;;;;;;;9.65;71.74;96345.77;1700351;83;21166;-80
2021/04/03 07:00:44;;;;;;;11.35;8.28;;;;;;;9.81;70.99;96356.24;1713139;84;21116;-80
2021/04/03 07:03:23;;;;;;;11.65;9.35;;;;;;;9.94;70.99;96365.19;1714172;83;21183;-82
2021/04/03 07:05:52;;;;;;;20.02;11.10;;;;;;;10.13;69.98;96361.25;1714396;84;21345;-84
2021/04/03 07:08:20;;;;;;;19.10;11.30;;;;;;;10.34;70.81;96365.55;1714128;84;21273;-85
2021/04/03 07:10:47;;;;;;;20.48;11.12;;;;;;;10.62;71.10;96355.14;1713652;83;21128;-80
2021/04/03 07:13:15;;;;;;;18.92;11.73;;;;;;;10.92;70.33;96354.59;1713400;83;21159;-85
2021/04/03 07:15:45;;;;;;;16.12;11.33;;;;;;;11.19;70.01;96364.34;1713445;83;21148;-83
2021/04/03 07:18:13;;;;;;;16.17;12.35;;;;;;;11.41;69.76;96375.00;1713374;83;21164;-83
2021/04/03 07:20:42;;;;;;;18.00;13.10;;;;;;;11.59;69.58;96374.24;1713464;83;21158;-84
2021/04/03 07:23:12;;;;;;;19.07;12.63;;;;;;;11.71;68.95;96369.59;1713037;84;21151;-81
2021/04/03 07:25:42;;;;;;;20.68;15.00;;;;;;;11.75;69.84;96370.94;1712813;83;21139;-86
2021/04/03 07:28:11;;;;;;;20.65;14.25;;;;;;;11.68;68.25;96373.83;1712607;83;21164;-84
2021/04/03 07:30:45;;;;;;;18.85;14.40;;;;;;;11.62;67.79;96373.11;1712511;84;21177;-87
2021/04/03 07:33:18;;;;;;;17.73;14.45;;;;;;;11.58;67.63;96381.81;1712760;84;21183;-80
2021/04/03 07:35:57;;;;;;;20.77;15.80;;;;;;;11.57;67.67;96392.03;1712856;83;21151;-88
2021/04/03 07:38:31;;;;;;;22.45;15.85;;;;;;;11.46;67.71;96390.89;1713125;84;21483;-85
2021/04/03 07:41:14;;;;;;;25.00;19.48;;;;;;;11.30;67.86;96392.36;1712769;83;21188;-86
2021/04/03 07:43:47;;;;;;;20.88;17.07;;;;;;;11.14;67.52;96392.97;1712747;83;21188;-84
2021/04/03 07:46:38;;;;;;;17.20;14.13;;;;;;;11.02;68.33;96387.52;1712246;83;21143;-82
2021/04/03 07:49:06;;;;;;;13.13;10.18;;;;;;;10.87;64.12;96391.94;1712634;83;21160;-82
2021/04/03 07:51:42;;;;;;;16.70;12.88;;;;;;;10.72;66.25;96389.38;1711934;83;21588;-88
2021/04/03 07:54:12;;;;;;;;;;;;;;;10.56;66.62;96381.58;1715244;83;21148;-88
2021/04/03 07:56:52;;;;;;;14.30;11.43;;;;;;;10.40;64.98;96391.86;1712228;84;20194;-86
2021/04/03 07:59:48;;;;;;;11.63;8.50;;;;;;;10.37;66.86;96395.61;1712418;83;21139;-88
2021/04/03 08:02:19;;;;;;;15.20;11.22;;;;;;;10.24;66.99;96405.55;1712988;84;21135;-88
2021/04/03 08:04:48;;;;;;;16.37;11.75;;;;;;;10.12;68.01;96403.03;1713861;83;21223;-87
2021/04/03 08:07:18;;;;;;;7.40;5.58;;;;;;;10.10;67.53;96400.20;1713647;84;21159;-81
2021/04/03 08:09:47;;;;;;;9.28;7.15;;;;;;;10.07;65.92;96408.39;1712731;84;21170;-82
2021/04/03 08:12:14;;;;;;;9.63;6.40;;;;;;;9.94;65.60;96417.38;1712722;83;21116;-84
2021/04/03 08:14:44;;;;;;;10.25;4.78;;;;;;;10.09;66.35;96409.06;1712676;83;21140;-85
2021/04/03 08:17:18;;;;;;;10.82;6.62;;;;;;;10.29;65.39;96416.52;1712532;84;21207;-84
2021/04/03 08:19:45;;;;;;;9.15;7.12;;;;;;;10.28;63.65;96417.48;1713252;83;21140;-86
2021/04/03 08:22:13;;;;;;;15.05;7.87;;;;;;;10.45;64.19;96429.14;1712769;84;21221;-82
2021/04/03 08:24:44;;;;;;;8.53;5.22;;;;;;;10.58;64.76;96432.34;1711941;83;21132;-85
2021/04/03 08:27:11;;;;;;;11.00;5.90;;;;;;;10.71;64.63;96432.05;1710936;83;21182;-84
2021/04/03 08:29:38;;;;;;;9.70;6.60;;;;;;;10.62;60.26;96436.84;1712230;84;21605;-83
2021/04/03 08:32:07;;;;;;;7.05;4.75;;;;;;;10.56;63.20;96443.50;1712801;83;21143;-84
2021/04/03 08:34:44;;;;;;;12.03;5.45;;;;;;;10.57;63.04;96443.03;1712199;84;21609;-82
2021/04/03 08:37:12;;;;;;;7.65;5.30;;;;;;;10.52;62.89;96447.87;1712845;83;21166;-84
2021/04/03 08:39:39;;;;;;;4.80;4.10;;;;;;;10.56;62.18;96451.41;1712352;84;21171;-83
2021/04/03 08:42:08;;;;;;;4.53;3.42;;;;;;;10.60;61.63;96450.17;1712659;84;21164;-81
2021/04/03 08:44:36;;;;;;;5.08;3.83;;;;;;;10.57;60.28;96446.48;1712119;83;21569;-83
2021/04/03 08:47:04;;;;;;;6.85;3.98;;;;;;;10.52;60.10;96451.83;1694676;84;21195;-82
2021/04/03 08:49:37;;;;;;;7.95;3.62;;;;;;;10.58;60.54;96448.16;1692454;82;21606;-79
2021/04/03 08:52:08;;;;;;;5.80;2.70;;;;;;;10.66;60.31;96455.38;1686574;85;21162;-85
2021/04/03 08:54:40;;;;;;;3.33;2.25;;;;;;;10.73;58.38;96452.98;1686547;85;21588;-86
2021/04/03 08:57:29;;;;;;;4.25;2.20;;;;;;;10.88;58.31;96450.75;1686149;85;21162;-86
2021/04/03 09:00:00;;;;;;;7.60;2.45;;;;;;;10.89;53.66;96441.41;1687021;85;21165;-82
2021/04/03 09:02:28;;;;;;;4.33;1.92;;;;;;;11.00;56.75;96452.27;1686387;85;21123;-86
2021/04/03 09:04:56;;;;;;;2.45;1.70;;;;;;;11.11;54.88;96450.45;1686176;85;21174;-82
2021/04/03 09:07:38;;;;;;;5.30;1.80;;;;;;;11.12;51.14;96454.25;1686126;85;21599;-83
2021/04/03 09:10:09;;;;;;;3.33;1.80;;;;;;;11.01;50.73;96454.41;1686369;85;21170;-86
2021/04/03 09:12:37;;;;;;;2.92;1.90;;;;;;;10.75;47.26;96465.55;1686428;85;21572;-83
2021/04/03 09:15:07;;;;;;;2.27;1.77;;;;;;;10.55;48.47;96479.23;1686045;85;21183;-83
2021/04/03 09:17:50;;;;;;;2.70;1.27;;;;;;;10.37;48.42;96478.59;1686091;85;21182;-85
2021/04/03 09:20:25;;;;;;;2.95;1.55;;;;;;;10.26;51.59;96479.50;1686056;85;21154;-81
2021/04/03 09:22:57;;;;;;;3.12;2.10;;;;;;;10.21;51.33;96476.95;1686106;85;21178;-81
2021/04/03 09:25:29;;;;;;;3.50;2.12;;;;;;;10.14;48.83;96470.89;1685916;85;21607;-82
2021/04/03 09:28:01;;;;;;;3.80;2.20;;;;;;;10.11;52.79;96478.23;1686438;85;21198;-85
2021/04/03 09:30:48;;;;;;;3.70;1.98;;;;;;;10.07;53.05;96482.94;1687171;85;21173;-83
2021/04/03 09:33:26;;;;;;;3.47;2.37;;;;;;;10.08;52.44;96479.81;1687610;85;21154;-80
2021/04/03 09:36:10;;;;;;;3.35;2.10;;;;;;;9.92;51.66;96498.28;1687937;85;21173;-81
2021/04/03 09:38:38;;;;;;;3.75;2.10;;;;;;;9.82;52.89;96490.36;1688374;85;21684;-79
2021/04/03 09:44:10;;;;;;;3.02;2.37;;;;;;;9.52;53.99;96506.97;1826425;77;24809;-81
2021/04/03 09:46:38;;;;;;;4.83;2.37;;;;;;;9.37;54.43;96517.85;1829875;78;21286;-81
2021/04/03 09:49:09;;;;;;;4.42;2.55;;;;;;;9.28;54.09;96513.37;1811386;78;21285;-80
2021/04/03 09:51:38;;;;;;;5.25;2.72;;;;;;;9.16;54.61;96519.19;1767625;78;21246;-80
2021/04/03 09:54:06;;;;;;;2.52;1.87;;;;;;;9.21;55.26;96517.48;1828411;78;21128;-82
2021/04/03 09:56:34;;;;;;;4.37;2.30;;;;;;;9.30;52.18;96507.50;1808738;78;21632;-86
2021/04/03 09:59:01;;;;;;;3.30;1.80;;;;;;;9.33;54.39;96519.06;1798729;80;21119;-80
2021/04/03 10:01:29;;;;;;;9.05;2.65;;;;;;;9.47;54.84;96522.33;1792528;80;21088;-79
2021/04/03 10:03:56;;;;;;;3.00;2.10;;;;;;;9.53;53.59;96519.16;1764131;81;21151;-82
2021/04/03 10:06:24;;;;;;;5.30;2.40;;;;;;;9.73;54.93;96517.94;1765249;80;21555;-82
2021/04/03 10:08:51;;;;;;;5.92;2.40;;;;;;;9.91;49.51;96510.27;1796874;80;21077;-85
2021/04/03 10:11:18;;;;;;;2.85;1.90;;;;;;;10.02;50.52;96514.12;1795503;80;21269;-81
2021/04/03 10:13:46;;;;;;;4.70;2.22;;;;;;;10.07;45.17;96513.72;1797628;80;21119;-81
2021/04/03 10:16:16;;;;;;;2.75;1.80;;;;;;;10.12;46.92;96513.64;1798153;80;21127;-85
2021/04/03 10:18:52;;;;;;;3.25;2.20;;;;;;;10.19;49.02;96518.39;1797686;80;21139;-81
2021/04/03 10:21:22;;;;;;;2.90;1.77;;;;;;;10.21;47.64;96509.38;1780340;80;21135;-82
2021/04/03 10:23:49;;;;;;;5.72;2.22;;;;;;;10.26;47.86;96518.19;1764358;81;21569;-83
2021/04/03 10:26:18;;;;;;;3.30;2.02;;;;;;;10.25;49.20;96518.69;1776020;80;21122;-85
2021/04/03 10:28:47;;;;;;;2.52;1.82;;;;;;;10.37;49.56;96526.45;1797857;80;21135;-87
2021/04/03 10:31:15;;;;;;;29.05;4.00;;;;;;;10.39;48.97;96533.30;1768124;80;21230;-82
2021/04/03 10:33:43;;;;;;;3.47;2.33;;;;;;;10.51;49.51;96529.20;1796559;80;21127;-87
2021/04/03 10:36:10;;;;;;;3.45;2.02;;;;;;;10.65;48.56;96529.29;1797354;80;21119;-81
2021/04/03 10:38:38;;;;;;;4.20;1.87;;;;;;;10.74;48.61;96532.42;1799924;78;21136;-81
2021/04/03 10:41:07;;;;;;;2.40;1.57;;;;;;;10.79;48.90;96546.03;1798053;78;21122;-81
2021/04/03 10:43:35;;;;;;;2.70;1.85;;;;;;;10.86;49.26;96543.66;1790769;80;21143;-82
2021/04/03 10:46:02;;;;;;;2.95;1.70;;;;;;;10.94;45.87;96545.95;1757335;81;21561;-86
2021/04/03 10:48:30;;;;;;;4.10;2.30;;;;;;;10.98;46.81;96543.88;1758369;80;21293;-84
2021/04/03 10:50:57;;;;;;;3.42;1.90;;;;;;;11.12;48.75;96553.66;1757892;81;21167;-83
2021/04/03 10:53:26;;;;;;;3.10;1.77;;;;;;;11.20;48.77;96544.56;1781576;79;21601;-88
2021/04/03 10:55:54;;;;;;;3.55;1.90;;;;;;;11.22;47.76;96540.80;1765536;80;21278;-86
2021/04/03 10:58:21;;;;;;;3.40;1.65;;;;;;;11.34;47.34;96548.56;1725946;82;21127;-81
2021/04/03 11:00:49;;;;;;;3.02;1.60;;;;;;;11.34;47.71;96537.52;1776271;79;21208;-88
2021/04/03 11:03:16;;;;;;;2.67;1.80;;;;;;;11.35;47.45;96537.86;1782629;79;21542;-86
2021/04/03 11:05:44;;;;;;;5.35;2.00;;;;;;;11.39;47.55;96537.09;1782437;80;21130;-89
2021/04/03 11:08:11;;;;;;;3.00;2.27;;;;;;;11.41;45.63;96544.38;1785554;80;21530;-88
2021/04/03 11:10:38;;;;;;;5.05;2.30;;;;;;;11.46;47.07;96545.27;1787736;80;21160;-80
2021/04/03 11:13:06;;;;;;;2.55;1.80;;;;;;;11.51;47.32;96543.88;1784897;80;21119;-86
2021/04/03 11:15:33;;;;;;;3.75;1.95;;;;;;;11.53;45.91;96544.57;1787126;80;21546;-79
2021/04/03 11:18:00;;;;;;;6.85;1.90;;;;;;;11.45;46.75;96547.09;1787221;80;21210;-85
2021/04/03 11:20:28;;;;;;;7.47;2.35;;;;;;;11.58;46.40;96555.17;1814924;79;21178;-80
2021/04/03 11:22:57;;;;;;;4.75;2.27;;;;;;;11.70;47.16;96560.64;1810749;79;21135;-81
2021/04/03 11:25:24;;;;;;;3.22;2.02;;;;;;;11.77;47.17;96564.36;1787557;80;21140;-80
2021/04/03 11:27:52;;;;;;;2.67;2.30;;;;;;;11.85;47.10;96566.29;1783480;80;21187;-81
2021/04/03 11:30:21;;;;;;;6.80;2.05;;;;;;;11.69;46.24;96569.53;1779962;79;21147;-86
2021/04/03 11:32:51;;;;;;;3.42;2.00;;;;;;;11.58;47.27;96569.69;1819973;79;21159;-83
2021/04/03 11:35:21;;;;;;;3.33;2.10;;;;;;;11.51;45.33;96566.78;1755295;80;21164;-81
2021/04/03 11:37:53;;;;;;;3.05;2.20;;;;;;;11.50;47.65;96567.28;1754246;82;21151;-82
2021/04/03 11:40:20;;;;;;;3.65;2.37;;;;;;;11.54;46.94;96571.31;1755066;80;21100;-86
2021/04/03 11:42:52;;;;;;;4.10;2.15;;;;;;;11.50;47.28;96571.23;1754512;82;21807;-82
2021/04/03 11:45:18;;;;;;;3.47;2.12;;;;;;;11.48;47.92;96570.54;1754357;80;21604;-86
2021/04/03 11:47:46;;;;;;;3.15;2.05;;;;;;;11.44;47.50;96562.58;1755508;82;21180;-87
2021/04/03 11:50:14;;;;;;;3.00;2.00;;;;;;;11.33;46.71;96553.00;1755235;81;21179;-81
2021/04/03 11:52:42;;;;;;;3.92;2.10;;;;;;;11.24;47.59;96559.97;1758496;80;21136;-84
2021/04/03 11:55:15;;;;;;;4.08;2.22;;;;;;;11.17;47.64;96564.61;1755194;82;21152;-83
2021/04/03 11:57:43;;;;;;;6.67;2.15;;;;;;;11.06;47.52;96573.02;1767844;80;21096;-85
2021/04/03 12:00:12;;;;;;;4.80;2.10;;;;;;;11.00;47.75;96575.37;1788006;80;21112;-84
2021/04/03 12:02:39;;;;;;;2.65;2.00;;;;;;;10.86;47.71;96573.50;1788597;80;21139;-84
2021/04/03 12:05:08;;;;;;;3.10;1.98;;;;;;;10.80;46.63;96574.53;1788646;80;21517;-82
2021/04/03 12:07:38;;;;;;;2.92;1.70;;;;;;;10.63;47.05;96580.83;1788216;80;21128;-81
2021/04/03 12:10:15;;;;;;;6.60;2.25;;;;;;;10.48;46.73;96590.92;1788012;80;21590;-90
2021/04/03 12:13:11;;;;;;;2.72;1.82;;;;;;;10.25;46.86;96585.85;1756759;82;21589;-91
2021/04/03 12:15:44;;;;;;;5.42;1.70;;;;;;;10.16;46.02;96572.98;1762281;80;21689;-90
2021/04/03 12:18:30;;;;;;;3.87;2.13;;;;;;;9.81;46.49;96566.34;1756095;82;21120;-88
2021/04/03 12:21:54;;;;;;;3.25;2.05;;;;;;;9.81;47.50;96587.86;1755861;81;21163;-89
2021/04/03 12:25:11;;;;;;;2.65;1.90;;;;;;;9.91;47.46;96584.80;1755608;81;21148;-86
2021/04/03 12:27:39;;;;;;;3.70;2.20;;;;;;;9.99;48.35;96590.23;1757661;82;21258;-85
2021/04/03 12:30:16;;;;;;;3.37;2.42;;;;;;;9.99;47.90;96588.92;1757885;82;21073;-84